This is the latest recevied weather packets stored in our database for station/object SV9TNF-2. If no packets are shown the sender has not sent any weather packets the latest 10 day(s).
| Time | Temp. | Humidity | Pressure | Rain* | Wind** | Luminosity | Snow |
|---|---|---|---|---|---|---|---|
| 1777940270 | 12.78° C | 83% | 1024.4 hPa | 0 mm | 4.92 m/s, 190° | - | - |
| 1777939970 | 12.78° C | 83% | 1024.4 hPa | 0 mm | 4.47 m/s, 244° | - | - |
| 1777939670 | 12.78° C | 83% | 1024.4 hPa | 0 mm | 4.92 m/s, 202° | - | - |
| 1777939370 | 12.78° C | 83% | 1024.4 hPa | 0 mm | 2.68 m/s, 252° | - | - |
| 1777939069 | 12.78° C | 83% | 1024.7 hPa | 0 mm | 6.71 m/s, 180° | - | - |
| 1777938770 | 12.78° C | 83% | 1024.7 hPa | 0 mm | 2.24 m/s, 271° | - | - |
| 1777938470 | 12.78° C | 83% | 1024.7 hPa | 0 mm | 4.02 m/s, 182° | - | - |
| 1777938169 | 12.78° C | 83% | 1024.7 hPa | 0 mm | 4.47 m/s, 195° | - | - |
| 1777937869 | 12.22° C | 83% | 1024.7 hPa | 0 mm | 4.92 m/s, 232° | - | - |
| 1777937569 | 12.22° C | 83% | 1024.7 hPa | 0 mm | 3.58 m/s, 187° | - | - |
| 1777937269 | 12.22° C | 83% | 1024.7 hPa | 0 mm | 4.92 m/s, 207° | - | - |
| 1777936969 | 12.22° C | 82% | 1024.7 hPa | 0 mm | 5.81 m/s, 232° | - | - |
| 1777936669 | 12.22° C | 82% | 1024.7 hPa | 0 mm | 3.58 m/s, 199° | - | - |
| 1777936369 | 12.22° C | 82% | 1024.7 hPa | 0 mm | 5.81 m/s, 153° | - | - |
| 1777936069 | 12.78° C | 81% | 1024.7 hPa | 0 mm | 4.02 m/s, 203° | - | - |
| 1777935769 | 12.78° C | 81% | 1024.7 hPa | 0 mm | 4.02 m/s, 233° | - | - |
| 1777935468 | 12.22° C | 81% | 1025.1 hPa | 0 mm | 5.36 m/s, 217° | - | - |
| 1777935169 | 12.78° C | 81% | 1025.1 hPa | 0 mm | 7.15 m/s, 136° | - | - |
| 1777934868 | 12.78° C | 81% | 1025.1 hPa | 0 mm | 5.36 m/s, 203° | - | - |
| 1777934569 | 12.78° C | 81% | 1025.1 hPa | 0 mm | 4.92 m/s, 173° | - | - |
| 1777934268 | 12.22° C | 81% | 1025.1 hPa | 0 mm | 4.92 m/s, 170° | - | - |
| 1777933968 | 12.78° C | 81% | 1025.1 hPa | 0 mm | 4.02 m/s, 230° | - | - |
| 1777933668 | 12.22° C | 81% | 1025.1 hPa | 0 mm | 7.15 m/s, 225° | - | - |
| 1777933368 | 12.22° C | 80% | 1025.1 hPa | 0 mm | 6.26 m/s, 232° | - | - |
| 1777933068 | 12.78° C | 80% | 1025.1 hPa | 0 mm | 8.05 m/s, 114° | - | - |
* Rain latest hour (hover to see other rain measurements)
** Current wind speed in m/s (hover to see current wind gust speed)